Rio Segundo, Argentina
Current Conditions -  °F | °C
As of 11:00 AM on Saturday 20 Dec 2014 (Local Time) from SACO Reporting Station
Scattered Clouds Scattered Clouds  
Wind Chill: 70°   Ceiling: Unl
Heat Index: 70°   Visibility: 6mi
Dew Point: 57°   Wind: 12mph
Humidity: 64%   Direction: 180°S
Pressure: 29.74"   Gusts: NA
Location:  31.67°S, 63.92°W
Report Text: SACO 201400Z 18010KT 9999 FEW010 SCT030 SCT100 21/14 Q1007
Loading
Personal Weather Stations






























Interactive Weather Map New forecast layout! Learn more

10-Day Weather Forecast

Advertisements
Track Severe Weather on mobile